sensor_id;sensor_type;location;lat;lon;timestamp;pressure;altitude;pressure_sealevel;temperature;humidity
58775;BME280;44545;47.480;19.024;2023-09-19T03:24:16;99564.44;;;19.51;100.00
58775;BME280;44545;47.480;19.024;2023-09-19T03:27:19;99553.94;;;19.60;100.00
58775;BME280;44545;47.480;19.024;2023-09-19T03:30:22;99553.16;;;19.75;100.00
58775;BME280;44545;47.480;19.024;2023-09-19T03:33:25;99561.09;;;19.84;100.00
58775;BME280;44545;47.480;19.024;2023-09-19T03:36:30;99561.16;;;20.01;100.00
58775;BME280;44545;47.480;19.024;2023-09-19T03:39:36;99560.28;;;20.07;100.00
58775;BME280;44545;47.480;19.024;2023-09-19T03:42:40;99559.37;;;19.97;100.00
58775;BME280;44545;47.480;19.024;2023-09-19T03:45:43;99571.69;;;19.81;100.00
58775;BME280;44545;47.480;19.024;2023-09-19T03:48:47;99560.25;;;20.02;100.00
58775;BME280;44545;47.480;19.024;2023-09-19T03:51:49;99562.03;;;20.02;100.00
58775;BME280;44545;47.480;19.024;2023-09-19T03:54:52;99562.94;;;20.10;100.00
58775;BME280;44545;47.480;19.024;2023-09-19T03:57:54;99568.25;;;20.18;100.00
58775;BME280;44545;47.480;19.024;2023-09-19T04:00:57;99566.50;;;20.23;100.00
58775;BME280;44545;47.480;19.024;2023-09-19T04:04:01;99572.69;;;20.28;100.00
58775;BME280;44545;47.480;19.024;2023-09-19T04:07:10;99577.09;;;20.32;100.00
58775;BME280;44545;47.480;19.024;2023-09-19T04:10:13;99581.53;;;20.42;100.00
58775;BME280;44545;47.480;19.024;2023-09-19T04:13:16;99572.72;;;20.45;100.00
58775;BME280;44545;47.480;19.024;2023-09-19T04:16:19;99579.78;;;20.49;100.00
58775;BME280;44545;47.480;19.024;2023-09-19T04:19:21;99579.72;;;20.23;100.00
58775;BME280;44545;47.480;19.024;2023-09-19T04:22:24;99578.00;;;20.29;100.00
58775;BME280;44545;47.480;19.024;2023-09-19T04:25:26;99587.69;;;20.29;100.00
58775;BME280;44545;47.480;19.024;2023-09-19T04:28:31;99586.84;;;20.36;100.00
58775;BME280;44545;47.480;19.024;2023-09-19T04:31:33;99596.53;;;20.43;100.00
58775;BME280;44545;47.480;19.024;2023-09-19T04:34:36;99598.28;;;20.35;100.00
58775;BME280;44545;47.480;19.024;2023-09-19T04:37:40;99602.75;;;20.47;100.00
58775;BME280;44545;47.480;19.024;2023-09-19T04:40:45;99605.34;;;20.33;100.00
58775;BME280;44545;47.480;19.024;2023-09-19T04:43:47;99609.78;;;20.34;100.00
58775;BME280;44545;47.480;19.024;2023-09-19T04:46:50;99608.91;;;20.50;100.00
58775;BME280;44545;47.480;19.024;2023-09-19T04:49:53;99613.37;;;20.54;100.00
58775;BME280;44545;47.480;19.024;2023-09-19T04:52:55;99618.63;;;20.53;100.00
58775;BME280;44545;47.480;19.024;2023-09-19T04:55:57;99618.59;;;20.48;100.00
58775;BME280;44545;47.480;19.024;2023-09-19T04:59:00;99624.84;;;20.66;100.00
58775;BME280;44545;47.480;19.024;2023-09-19T05:02:02;99623.09;;;20.65;100.00
58775;BME280;44545;47.480;19.024;2023-09-19T05:05:07;99620.37;;;20.48;100.00
58775;BME280;44545;47.480;19.024;2023-09-19T05:08:10;99628.34;;;20.49;100.00
58775;BME280;44545;47.480;19.024;2023-09-19T05:11:12;99635.41;;;20.44;100.00
58775;BME280;44545;47.480;19.024;2023-09-19T05:14:14;99637.16;;;20.48;100.00
58775;BME280;44545;47.480;19.024;2023-09-19T05:17:17;99638.03;;;20.50;100.00
58775;BME280;44545;47.480;19.024;2023-09-19T05:20:19;99644.19;;;20.34;100.00
58775;BME280;44545;47.480;19.024;2023-09-19T05:23:32;99645.91;;;20.10;100.00
58775;BME280;44545;47.480;19.024;2023-09-19T05:26:34;99657.37;;;20.19;100.00
58775;BME280;44545;47.480;19.024;2023-09-19T05:29:37;99663.59;;;20.30;100.00
58775;BME280;44545;47.480;19.024;2023-09-19T05:32:39;99661.84;;;20.37;100.00
58775;BME280;44545;47.480;19.024;2023-09-19T05:35:42;99657.37;;;20.14;100.00
58775;BME280;44545;47.480;19.024;2023-09-19T05:38:44;99660.00;;;20.09;100.00
58775;BME280;44545;47.480;19.024;2023-09-19T05:41:47;99653.78;;;20.01;100.00
58775;BME280;44545;47.480;19.024;2023-09-19T05:44:50;99663.47;;;19.99;100.00
58775;BME280;44545;47.480;19.024;2023-09-19T05:47:53;99660.75;;;19.87;100.00
58775;BME280;44545;47.480;19.024;2023-09-19T05:51:06;99643.16;;;19.95;100.00
58775;BME280;44545;47.480;19.024;2023-09-19T05:54:09;99658.25;;;20.11;100.00
58775;BME280;44545;47.480;19.024;2023-09-19T05:57:13;99664.44;;;20.10;100.00
58775;BME280;44545;47.480;19.024;2023-09-19T06:00:15;99674.09;;;20.10;100.00
58775;BME280;44545;47.480;19.024;2023-09-19T06:03:23;99677.59;;;20.00;100.00
58775;BME280;44545;47.480;19.024;2023-09-19T06:06:26;99679.31;;;19.95;100.00
58775;BME280;44545;47.480;19.024;2023-09-19T06:09:30;99682.75;;;19.70;100.00
58775;BME280;44545;47.480;19.024;2023-09-19T06:12:41;99682.72;;;19.72;100.00
58775;BME280;44545;47.480;19.024;2023-09-19T06:15:46;99678.44;;;19.92;100.00
58775;BME280;44545;47.480;19.024;2023-09-19T06:18:51;99681.00;;;19.73;100.00
58775;BME280;44545;47.480;19.024;2023-09-19T06:21:55;99680.87;;;19.57;100.00
58775;BME280;44545;47.480;19.024;2023-09-19T06:24:57;99678.19;;;19.54;100.00
58775;BME280;44545;47.480;19.024;2023-09-19T06:28:00;99687.19;;;19.76;100.00
58775;BME280;44545;47.480;19.024;2023-09-19T06:31:06;99696.00;;;19.77;100.00
58775;BME280;44545;47.480;19.024;2023-09-19T06:34:12;99699.50;;;19.71;100.00
58775;BME280;44545;47.480;19.024;2023-09-19T06:37:17;99702.91;;;19.59;100.00
58775;BME280;44545;47.480;19.024;2023-09-19T06:40:20;99698.53;;;19.63;100.00
58775;BME280;44545;47.480;19.024;2023-09-19T06:43:23;99708.09;;;19.42;100.00
58775;BME280;44545;47.480;19.024;2023-09-19T06:46:26;99694.72;;;19.25;100.00
58775;BME280;44545;47.480;19.024;2023-09-19T06:49:35;99699.09;;;19.20;100.00
58775;BME280;44545;47.480;19.024;2023-09-19T06:52:37;99699.03;;;19.16;100.00
58775;BME280;44545;47.480;19.024;2023-09-19T06:55:40;99694.50;;;19.01;100.00
58775;BME280;44545;47.480;19.024;2023-09-19T06:58:42;99709.50;;;19.02;100.00
58775;BME280;44545;47.480;19.024;2023-09-19T07:01:45;99730.41;;;18.80;100.00
58775;BME280;44545;47.480;19.024;2023-09-19T07:04:49;99729.16;;;18.51;100.00
58775;BME280;44545;47.480;19.024;2023-09-19T07:07:52;99728.28;;;18.49;100.00
58775;BME280;44545;47.480;19.024;2023-09-19T07:10:56;99736.28;;;18.58;100.00
58775;BME280;44545;47.480;19.024;2023-09-19T07:13:58;99746.22;;;18.76;100.00
58775;BME280;44545;47.480;19.024;2023-09-19T07:17:01;99747.19;;;18.84;100.00
58775;BME280;44545;47.480;19.024;2023-09-19T07:20:04;99753.56;;;19.06;100.00
58775;BME280;44545;47.480;19.024;2023-09-19T07:23:10;99758.94;;;19.12;100.00
58775;BME280;44545;47.480;19.024;2023-09-19T07:26:13;99770.97;;;18.86;100.00
58775;BME280;44545;47.480;19.024;2023-09-19T07:29:15;99769.03;;;18.72;100.00
58775;BME280;44545;47.480;19.024;2023-09-19T07:32:18;99772.53;;;18.70;100.00
58775;BME280;44545;47.480;19.024;2023-09-19T07:35:21;99753.16;;;18.71;100.00
58775;BME280;44545;47.480;19.024;2023-09-19T07:38:23;99770.91;;;18.79;100.00
58775;BME280;44545;47.480;19.024;2023-09-19T07:41:29;99767.97;;;18.58;100.00
58775;BME280;44545;47.480;19.024;2023-09-19T07:44:35;99766.09;;;18.48;100.00
58775;BME280;44545;47.480;19.024;2023-09-19T07:47:38;99772.63;;;18.09;100.00
58775;BME280;44545;47.480;19.024;2023-09-19T07:50:41;99786.06;;;17.68;100.00
58775;BME280;44545;47.480;19.024;2023-09-19T07:53:45;99794.75;;;17.62;100.00
58775;BME280;44545;47.480;19.024;2023-09-19T07:56:50;99800.09;;;17.65;100.00
58775;BME280;44545;47.480;19.024;2023-09-19T07:59:52;99814.16;;;17.66;100.00
58775;BME280;44545;47.480;19.024;2023-09-19T08:02:55;99822.22;;;17.76;100.00
58775;BME280;44545;47.480;19.024;2023-09-19T08:06:06;99830.47;;;17.95;100.00
58775;BME280;44545;47.480;19.024;2023-09-19T08:09:08;99824.69;;;18.19;100.00
58775;BME280;44545;47.480;19.024;2023-09-19T08:12:13;99832.78;;;18.31;100.00
58775;BME280;44545;47.480;19.024;2023-09-19T08:15:18;99832.13;;;18.49;100.00
58775;BME280;44545;47.480;19.024;2023-09-19T08:18:22;99840.00;;;18.45;100.00
58775;BME280;44545;47.480;19.024;2023-09-19T08:21:25;99848.84;;;18.50;100.00
58775;BME280;44545;47.480;19.024;2023-09-19T08:24:29;99855.87;;;18.48;100.00
58775;BME280;44545;47.480;19.024;2023-09-19T08:27:31;99855.19;;;18.62;100.00
58775;BME280;44545;47.480;19.024;2023-09-19T08:30:34;99856.94;;;18.62;100.00
58775;BME280;44545;47.480;19.024;2023-09-19T08:33:37;99856.37;;;18.81;100.00
58775;BME280;44545;47.480;19.024;2023-09-19T08:36:41;99865.44;;;19.05;100.00
58775;BME280;44545;47.480;19.024;2023-09-19T08:39:45;99864.69;;;19.15;100.00
58775;BME280;44545;47.480;19.024;2023-09-19T08:42:49;99877.09;;;19.24;100.00
58775;BME280;44545;47.480;19.024;2023-09-19T08:46:06;99885.19;;;19.38;100.00
58775;BME280;44545;47.480;19.024;2023-09-19T08:49:54;99900.56;;;18.95;100.00
58775;BME280;44545;47.480;19.024;2023-09-19T08:53:01;99913.00;;;19.05;100.00
58775;BME280;44545;47.480;19.024;2023-09-19T08:56:09;99927.78;;;18.91;100.00
58775;BME280;44545;47.480;19.024;2023-09-19T08:59:12;99925.28;;;18.39;100.00
58775;BME280;44545;47.480;19.024;2023-09-19T09:02:16;99935.38;;;18.11;100.00
58775;BME280;44545;47.480;19.024;2023-09-19T09:05:22;99942.91;;;17.88;100.00
58775;BME280;44545;47.480;19.024;2023-09-19T09:08:26;99939.41;;;17.89;100.00
58775;BME280;44545;47.480;19.024;2023-09-19T09:11:29;99929.72;;;17.90;100.00
58775;BME280;44545;47.480;19.024;2023-09-19T09:14:35;99910.47;;;17.94;100.00
58775;BME280;44545;47.480;19.024;2023-09-19T09:17:37;99896.00;;;18.24;100.00
58775;BME280;44545;47.480;19.024;2023-09-19T09:20:40;99878.44;;;18.27;100.00
58775;BME280;44545;47.480;19.024;2023-09-19T09:23:43;99877.97;;;18.54;100.00
58775;BME280;44545;47.480;19.024;2023-09-19T09:26:47;99863.72;;;19.07;100.00
58775;BME280;44545;47.480;19.024;2023-09-19T09:29:52;99860.38;;;19.26;100.00
58775;BME280;44545;47.480;19.024;2023-09-19T09:33:14;99851.66;;;19.37;100.00
58775;BME280;44545;47.480;19.024;2023-09-19T09:36:33;99837.50;;;19.28;100.00
58775;BME280;44545;47.480;19.024;2023-09-19T09:39:36;99849.81;;;19.25;100.00
58775;BME280;44545;47.480;19.024;2023-09-19T09:42:38;99853.53;;;18.71;100.00
58775;BME280;44545;47.480;19.024;2023-09-19T09:45:41;99861.25;;;18.54;100.00
58775;BME280;44545;47.480;19.024;2023-09-19T09:52:15;99892.94;;;18.55;100.00
58775;BME280;44545;47.480;19.024;2023-09-19T09:55:22;99901.13;;;18.74;100.00
58775;BME280;44545;47.480;19.024;2023-09-19T09:58:24;99902.87;;;18.73;100.00
58775;BME280;44545;47.480;19.024;2023-09-19T10:01:46;99901.84;;;18.62;100.00
58775;BME280;44545;47.480;19.024;2023-09-19T10:04:53;99894.28;;;18.87;100.00
58775;BME280;44545;47.480;19.024;2023-09-19T10:08:14;99883.31;;;19.27;100.00
58775;BME280;44545;47.480;19.024;2023-09-19T10:11:21;99894.37;;;19.70;100.00
58775;BME280;44545;47.480;19.024;2023-09-19T10:14:35;99880.75;;;20.34;100.00
58775;BME280;44545;47.480;19.024;2023-09-19T10:17:42;99883.66;;;20.74;100.00
58775;BME280;44545;47.480;19.024;2023-09-19T10:20:46;99886.37;;;20.91;100.00
58775;BME280;44545;47.480;19.024;2023-09-19T10:23:50;99895.31;;;21.12;100.00
58775;BME280;44545;47.480;19.024;2023-09-19T10:26:55;99888.22;;;21.14;100.00
58775;BME280;44545;47.480;19.024;2023-09-19T10:29:58;99898.03;;;21.36;100.00
58775;BME280;44545;47.480;19.024;2023-09-19T10:33:03;99901.66;;;21.69;100.00
58775;BME280;44545;47.480;19.024;2023-09-19T10:36:06;99905.09;;;21.36;100.00
58775;BME280;44545;47.480;19.024;2023-09-19T10:39:11;99912.09;;;21.09;100.00
58775;BME280;44545;47.480;19.024;2023-09-19T10:42:19;99910.37;;;21.25;100.00
58775;BME280;44545;47.480;19.024;2023-09-19T10:45:22;99902.44;;;21.28;100.00
58775;BME280;44545;47.480;19.024;2023-09-19T10:48:28;99908.69;;;21.41;100.00
58775;BME280;44545;47.480;19.024;2023-09-19T10:51:39;99910.50;;;21.56;100.00
58775;BME280;44545;47.480;19.024;2023-09-19T10:54:46;99913.03;;;21.25;100.00
58775;BME280;44545;47.480;19.024;2023-09-19T10:57:53;99918.25;;;20.99;100.00
58775;BME280;44545;47.480;19.024;2023-09-19T11:00:57;99916.47;;;21.06;100.00
58775;BME280;44545;47.480;19.024;2023-09-19T11:07:58;99927.19;;;21.36;100.00
58775;BME280;44545;47.480;19.024;2023-09-19T11:15:03;99937.97;;;22.71;100.00
58775;BME280;44545;47.480;19.024;2023-09-19T11:21:54;99934.06;;;29.86;66.77
58775;BME280;44545;47.480;19.024;2023-09-19T11:28:44;100022.88;;;36.84;37.86
58775;BME280;44545;47.480;19.024;2023-09-19T11:31:46;100057.75;;;37.22;34.30
58775;BME280;44545;47.480;19.024;2023-09-19T11:34:50;100019.56;;;36.79;34.68
58775;BME280;44545;47.480;19.024;2023-09-19T11:47:33;99898.75;;;28.43;51.40
58775;BME280;44545;47.480;19.024;2023-09-19T11:50:37;99900.94;;;26.21;61.17
58775;BME280;44545;47.480;19.024;2023-09-19T11:53:46;99900.22;;;25.49;65.99
58775;BME280;44545;47.480;19.024;2023-09-19T11:56:52;99900.56;;;25.26;71.56
58775;BME280;44545;47.480;19.024;2023-09-19T11:59:57;99898.53;;;25.43;72.76
58775;BME280;44545;47.480;19.024;2023-09-19T12:03:07;99901.50;;;25.22;74.47
58775;BME280;44545;47.480;19.024;2023-09-19T12:06:12;99898.06;;;25.12;76.45
58775;BME280;44545;47.480;19.024;2023-09-19T12:09:19;99894.69;;;24.96;77.90
58775;BME280;44545;47.480;19.024;2023-09-19T12:12:24;99896.81;;;24.67;78.28
58775;BME280;44545;47.480;19.024;2023-09-19T12:15:29;99905.66;;;24.72;75.67
58775;BME280;44545;47.480;19.024;2023-09-19T12:18:41;99897.03;;;24.47;78.44
58775;BME280;44545;47.480;19.024;2023-09-19T12:21:54;99895.59;;;24.06;78.71
58775;BME280;44545;47.480;19.024;2023-09-19T12:25:06;99909.97;;;23.85;80.15
58775;BME280;44545;47.480;19.024;2023-09-19T12:28:09;99897.00;;;24.48;76.99
58775;BME280;44545;47.480;19.024;2023-09-19T12:31:13;99902.91;;;24.79;76.54
58775;BME280;44545;47.480;19.024;2023-09-19T12:34:25;99905.81;;;24.56;77.88
58775;BME280;44545;47.480;19.024;2023-09-19T12:37:30;99914.28;;;23.99;78.65
58775;BME280;44545;47.480;19.024;2023-09-19T12:40:32;99923.22;;;23.92;78.60
58775;BME280;44545;47.480;19.024;2023-09-19T12:43:38;99920.41;;;24.14;81.73
58775;BME280;44545;47.480;19.024;2023-09-19T12:46:44;99924.63;;;24.35;79.54
58775;BME280;44545;47.480;19.024;2023-09-19T12:50:06;99916.50;;;24.55;79.24
58775;BME280;44545;47.480;19.024;2023-09-19T12:53:24;99919.00;;;24.70;81.14
58775;BME280;44545;47.480;19.024;2023-09-19T12:56:27;99925.69;;;24.17;80.84
58775;BME280;44545;47.480;19.024;2023-09-19T12:59:31;99926.44;;;24.33;79.35
58775;BME280;44545;47.480;19.024;2023-09-19T13:02:35;99924.56;;;24.46;78.90
58775;BME280;44545;47.480;19.024;2023-09-19T13:05:56;99936.25;;;24.28;79.19
58775;BME280;44545;47.480;19.024;2023-09-19T13:09:10;99920.53;;;23.97;80.47
58775;BME280;44545;47.480;19.024;2023-09-19T13:12:35;99926.78;;;23.93;80.84
58775;BME280;44545;47.480;19.024;2023-09-19T13:15:52;99924.91;;;24.04;82.13
58775;BME280;44545;47.480;19.024;2023-09-19T13:18:55;99922.25;;;24.04;79.38
58775;BME280;44545;47.480;19.024;2023-09-19T13:22:00;99922.22;;;24.07;79.71
58775;BME280;44545;47.480;19.024;2023-09-19T13:25:03;99927.50;;;24.10;78.56
58775;BME280;44545;47.480;19.024;2023-09-19T13:28:06;99939.19;;;23.92;79.21
58775;BME280;44545;47.480;19.024;2023-09-19T13:31:09;99925.09;;;23.72;77.14
58775;BME280;44545;47.480;19.024;2023-09-19T13:34:13;99921.50;;;23.82;78.68
58775;BME280;44545;47.480;19.024;2023-09-19T13:37:18;99921.41;;;23.97;79.30
58775;BME280;44545;47.480;19.024;2023-09-19T13:40:20;99923.16;;;24.01;77.75
58775;BME280;44545;47.480;19.024;2023-09-19T13:43:23;99929.56;;;23.71;77.88
58775;BME280;44545;47.480;19.024;2023-09-19T13:46:27;99932.16;;;23.88;78.34
58775;BME280;44545;47.480;19.024;2023-09-19T13:49:30;99935.50;;;24.12;76.18
58775;BME280;44545;47.480;19.024;2023-09-19T13:52:34;99938.44;;;23.78;77.25
58775;BME280;44545;47.480;19.024;2023-09-19T13:55:36;99943.72;;;23.83;76.25
58775;BME280;44545;47.480;19.024;2023-09-19T13:58:40;99938.41;;;23.83;77.65
58775;BME280;44545;47.480;19.024;2023-09-19T14:01:44;99949.06;;;23.72;76.73
58775;BME280;44545;47.480;19.024;2023-09-19T14:04:47;99945.50;;;23.77;77.43
58775;BME280;44545;47.480;19.024;2023-09-19T14:07:49;99949.94;;;23.80;77.45
58775;BME280;44545;47.480;19.024;2023-09-19T14:10:52;99954.38;;;23.79;77.09
58775;BME280;44545;47.480;19.024;2023-09-19T14:13:55;99951.78;;;23.64;76.24
58775;BME280;44545;47.480;19.024;2023-09-19T14:16:59;99953.66;;;23.50;77.81
58775;BME280;44545;47.480;19.024;2023-09-19T14:20:03;99960.94;;;23.00;81.40
58775;BME280;44545;47.480;19.024;2023-09-19T14:23:06;99945.88;;;23.02;82.48
58775;BME280;44545;47.480;19.024;2023-09-19T14:26:08;99949.38;;;23.09;81.88
58775;BME280;44545;47.480;19.024;2023-09-19T14:29:11;99948.50;;;23.08;83.12
58775;BME280;44545;47.480;19.024;2023-09-19T14:32:15;99945.78;;;23.24;80.82
58775;BME280;44545;47.480;19.024;2023-09-19T14:35:17;99952.00;;;23.23;83.26
58775;BME280;44545;47.480;19.024;2023-09-19T14:38:20;99943.19;;;23.08;80.64
58775;BME280;44545;47.480;19.024;2023-09-19T14:41:23;99946.69;;;23.18;81.26
58775;BME280;44545;47.480;19.024;2023-09-19T14:44:27;99932.53;;;23.08;81.53
58775;BME280;44545;47.480;19.024;2023-09-19T14:47:30;99941.44;;;23.04;81.58
58775;BME280;44545;47.480;19.024;2023-09-19T14:50:34;99937.91;;;23.02;83.49
58775;BME280;44545;47.480;19.024;2023-09-19T14:53:36;99938.78;;;22.95;83.33
58775;BME280;44545;47.480;19.024;2023-09-19T14:56:42;99940.56;;;22.94;83.07
58775;BME280;44545;47.480;19.024;2023-09-19T14:59:46;99943.19;;;22.93;84.49
58775;BME280;44545;47.480;19.024;2023-09-19T15:02:49;99950.31;;;22.88;83.69
58775;BME280;44545;47.480;19.024;2023-09-19T15:05:59;99940.56;;;22.94;82.98
58775;BME280;44545;47.480;19.024;2023-09-19T15:09:02;99939.66;;;22.91;81.57
58775;BME280;44545;47.480;19.024;2023-09-19T15:12:07;99942.34;;;22.76;80.04
58775;BME280;44545;47.480;19.024;2023-09-19T15:15:09;99943.25;;;22.75;80.77
58775;BME280;44545;47.480;19.024;2023-09-19T15:18:12;99957.47;;;22.61;81.70
